Time;durP1;ratioP1;P1;durP2;ratioP2;P2;SDS_P1;SDS_P2;PMS_P1;PMS_P2;Temp;Humidity;BMP_temperature;BMP_pressure;BME280_temperature;BME280_humidity;BME280_pressure;Samples;Min_cycle;Max_cycle;Signal;HPM_P1;HPM_P2
2022/08/12 00:43:25;;;;;;;2.13;1.48;;;23.50;58.40;;;;;;5076088;28;20406;-63
2022/08/12 00:48:37;;;;;;;1.42;1.25;;;23.60;58.20;;;;;;5073933;28;20090;-64
2022/08/12 00:51:05;;;;;;;3.13;1.63;;;23.30;58.40;;;;;;5074046;28;20052;-64
2022/08/12 00:53:31;;;;;;;5.10;1.50;;;23.60;57.60;;;;;;5067672;28;20040;-64
2022/08/12 00:55:59;;;;;;;4.03;1.85;;;23.90;61.00;;;;;;5067275;28;20051;-63
2022/08/12 00:58:28;;;;;;;8.50;1.67;;;24.20;56.90;;;;;;5071365;28;20418;-63
2022/08/12 01:01:00;;;;;;;1.33;1.23;;;23.90;57.40;;;;;;5073736;28;20032;-63
2022/08/12 01:11:27;;;;;;;1.98;1.48;;;23.60;58.20;;;;;;5073998;28;20032;-63
2022/08/12 01:11:56;;;;;;;1.58;1.48;;;23.20;58.60;;;;;;5060793;28;20048;-64
2022/08/12 01:14:23;;;;;;;3.80;1.52;;;23.20;59.00;;;;;;5072109;28;20044;-63
2022/08/12 01:16:52;;;;;;;2.70;1.70;;;23.20;58.80;;;;;;5072188;28;20044;-64
2022/08/12 01:19:23;;;;;;;5.15;1.70;;;23.40;58.60;;;;;;5072544;28;20048;-64
2022/08/12 01:21:53;;;;;;;2.22;1.85;;;;;;;;;;5094242;28;20124;-65
2022/08/12 01:24:40;;;;;;;2.90;1.70;;;23.20;58.30;;;;;;5072239;28;20048;-64
2022/08/12 01:27:09;;;;;;;2.88;1.70;;;23.40;58.90;;;;;;5069709;28;20101;-65
2022/08/12 01:29:40;;;;;;;1.45;1.35;;;23.10;59.20;;;;;;5072475;28;20036;-64
2022/08/12 01:32:09;;;;;;;5.40;1.60;;;23.20;59.00;;;;;;5069807;28;20028;-63
2022/08/12 01:34:37;;;;;;;1.40;1.30;;;23.30;58.90;;;;;;5071707;28;20047;-63
2022/08/12 01:37:04;;;;;;;2.75;1.60;;;23.20;58.90;;;;;;5072680;28;20036;-63
2022/08/12 01:39:41;;;;;;;5.55;1.80;;;23.30;58.60;;;;;;5071762;28;20048;-63
2022/08/12 01:42:08;;;;;;;1.90;1.40;;;23.30;58.70;;;;;;5069144;28;20464;-63
2022/08/12 01:44:36;;;;;;;3.25;1.90;;;23.30;58.90;;;;;;5070383;28;20067;-63
2022/08/12 01:47:29;;;;;;;1.60;1.40;;;23.30;58.50;;;;;;5070508;28;20033;-63
2022/08/12 01:50:10;;;;;;;2.10;1.52;;;23.20;59.00;;;;;;5070134;28;20048;-63
2022/08/12 01:52:42;;;;;;;;;;;23.20;59.00;;;;;;5070343;28;20036;-64
2022/08/12 01:55:10;;;;;;;1.70;1.60;;;23.30;58.90;;;;;;5068555;28;19915;-64
2022/08/12 01:57:43;;;;;;;3.05;1.65;;;23.10;59.10;;;;;;5071043;28;20123;-63
2022/08/12 02:00:12;;;;;;;1.80;1.40;;;23.20;59.40;;;;;;5061019;28;20131;-63
2022/08/12 02:03:00;;;;;;;2.05;1.52;;;23.20;59.50;;;;;;5058383;28;20555;-63
2022/08/12 02:12:00;;;;;;;1.50;1.40;;;22.90;60.00;;;;;;5072974;28;20407;-64
2022/08/12 02:14:41;;;;;;;9.93;1.88;;;23.10;59.60;;;;;;5066433;28;20044;-63
2022/08/12 02:17:13;;;;;;;;;;;23.10;59.20;;;;;;5053234;28;20045;-64
2022/08/12 02:20:16;;;;;;;3.05;1.70;;;23.00;59.10;;;;;;5052794;28;19909;-65
2022/08/12 02:22:46;;;;;;;4.25;1.80;;;23.10;60.60;;;;;;5052770;28;20037;-63
2022/08/12 02:25:15;;;;;;;3.33;1.50;;;23.00;61.60;;;;;;5052703;28;20048;-63
2022/08/12 02:27:48;;;;;;;6.10;1.55;;;22.70;80.20;;;;;;5052655;28;20040;-62
2022/08/12 02:30:20;;;;;;;2.95;1.70;;;22.50;60.90;;;;;;5052692;28;20113;-68
2022/08/12 02:32:49;;;;;;;3.00;1.55;;;22.40;62.00;;;;;;5052751;28;20056;-69
2022/08/12 02:35:18;;;;;;;1.92;1.48;;;22.10;62.20;;;;;;5052569;28;20049;-65
2022/08/12 02:37:45;;;;;;;4.28;1.80;;;;;;;;;;5052635;28;20163;-65
2022/08/12 02:40:13;;;;;;;2.08;1.50;;;21.70;62.00;;;;;;5052738;28;20076;-65
2022/08/12 02:42:54;;;;;;;2.75;1.42;;;21.60;62.60;;;;;;5052825;28;20132;-67
2022/08/12 02:45:44;;;;;;;1.42;1.33;;;21.60;62.60;;;;;;5052622;28;20052;-66
2022/08/12 02:48:16;;;;;;;2.00;1.40;;;21.70;63.30;;;;;;5052486;28;20036;-67
2022/08/12 02:50:47;;;;;;;3.08;1.50;;;21.70;62.70;;;;;;5056272;28;20041;-64
2022/08/12 02:53:14;;;;;;;2.10;1.45;;;21.50;62.90;;;;;;5056370;28;20116;-62
2022/08/12 02:55:40;;;;;;;3.63;1.33;;;21.50;63.10;;;;;;5056196;28;20048;-63
2022/08/12 02:58:08;;;;;;;2.65;1.75;;;21.60;63.70;;;;;;5056196;28;20446;-63
2022/08/12 03:00:36;;;;;;;1.90;1.60;;;21.70;62.60;;;;;;5056092;28;20400;-63
2022/08/12 03:03:07;;;;;;;2.20;1.63;;;22.00;61.70;;;;;;5056439;28;20464;-63
2022/08/12 03:05:37;;;;;;;2.20;1.33;;;21.90;62.50;;;;;;5056435;28;20114;-63
2022/08/12 03:08:08;;;;;;;2.30;1.58;;;21.50;63.10;;;;;;5056133;28;20073;-63
2022/08/12 03:10:38;;;;;;;2.35;1.80;;;;;;;;;;5056070;28;20150;-63
2022/08/12 03:13:06;;;;;;;2.67;1.52;;;21.10;65.30;;;;;;5056166;28;20049;-63
2022/08/12 03:15:32;;;;;;;1.90;1.38;;;21.20;65.40;;;;;;5056361;28;20029;-63
2022/08/12 03:18:27;;;;;;;3.63;1.20;;;21.20;64.30;;;;;;5056169;28;20093;-63
2022/08/12 03:20:54;;;;;;;1.80;1.40;;;21.10;64.60;;;;;;5056089;28;20499;-61
2022/08/12 03:23:21;;;;;;;4.95;1.80;;;21.30;64.20;;;;;;5055570;28;20113;-63
2022/08/12 03:25:50;;;;;;;1.55;1.45;;;21.60;64.10;;;;;;5055611;28;20103;-63
2022/08/12 03:31:05;;;;;;;2.30;1.45;;;21.70;65.00;;;;;;5055653;28;20099;-63
2022/08/12 03:33:36;;;;;;;1.60;1.50;;;21.60;64.10;;;;;;5055873;28;20064;-63
2022/08/12 03:36:07;;;;;;;6.05;1.75;;;21.10;64.30;;;;;;5055709;28;20420;-63
2022/08/12 03:38:39;;;;;;;2.42;1.25;;;21.00;64.30;;;;;;5060411;28;20103;-64
2022/08/12 03:41:36;;;;;;;3.90;1.70;;;21.00;64.30;;;;;;5061243;28;20048;-63
2022/08/12 04:01:24;;;;;;;4.55;2.00;;;20.80;65.00;;;;;;5054124;28;20040;-64
2022/08/12 04:03:51;;;;;;;3.55;1.60;;;20.90;64.90;;;;;;5054835;28;20412;-63
2022/08/12 04:06:27;;;;;;;2.88;1.80;;;20.80;65.30;;;;;;5054915;28;20484;-64
2022/08/12 04:08:57;;;;;;;1.52;1.42;;;20.80;65.90;;;;;;5055249;28;20523;-63
2022/08/12 04:14:12;;;;;;;1.65;1.52;;;20.70;65.20;;;;;;5055107;28;20075;-62
2022/08/12 04:16:39;;;;;;;1.70;1.30;;;20.70;65.40;;;;;;5055066;28;20037;-62
2022/08/12 04:19:06;;;;;;;2.08;1.80;;;20.70;65.30;;;;;;5054801;28;20044;-63
2022/08/12 04:21:32;;;;;;;3.63;1.80;;;20.80;65.10;;;;;;5054808;28;20106;-63
2022/08/12 04:24:00;;;;;;;1.92;1.45;;;20.80;65.20;;;;;;5056690;28;20072;-63
2022/08/12 04:26:27;;;;;;;1.73;1.48;;;20.80;66.00;;;;;;5074584;28;20047;-63
2022/08/12 04:28:58;;;;;;;3.00;2.05;;;20.50;66.00;;;;;;5074801;28;20036;-63
2022/08/12 04:31:40;;;;;;;2.75;1.70;;;20.20;67.00;;;;;;5074678;28;20028;-63
2022/08/12 04:34:07;;;;;;;3.72;1.80;;;20.00;67.10;;;;;;5074647;28;20514;-62
2022/08/12 04:36:36;;;;;;;2.80;1.95;;;20.00;67.10;;;;;;5074569;28;20044;-63
2022/08/12 04:39:04;;;;;;;1.90;1.60;;;20.10;66.90;;;;;;5074593;28;20118;-62
2022/08/12 04:41:30;;;;;;;3.13;1.92;;;19.90;67.40;;;;;;5074415;28;20075;-64
2022/08/12 04:43:56;;;;;;;3.17;2.10;;;19.90;67.50;;;;;;5074344;28;20515;-64
2022/08/12 04:46:25;;;;;;;2.55;1.80;;;19.80;67.60;;;;;;5074189;28;20052;-63
2022/08/12 04:48:52;;;;;;;1.63;1.50;;;19.90;67.80;;;;;;5074233;28;20048;-63
2022/08/12 04:51:20;;;;;;;2.30;1.63;;;19.90;67.80;;;;;;5074243;28;20056;-63
2022/08/12 04:53:46;;;;;;;2.13;1.77;;;20.00;67.40;;;;;;5074341;28;20040;-63
2022/08/12 04:56:12;;;;;;;2.22;1.77;;;20.20;67.50;;;;;;5074234;28;20132;-64
2022/08/12 04:58:39;;;;;;;1.70;1.60;;;20.30;67.70;;;;;;5074090;28;20086;-64
2022/08/12 05:01:05;;;;;;;2.13;1.35;;;20.30;68.00;;;;;;5074048;28;20487;-63
2022/08/12 05:03:34;;;;;;;2.40;1.83;;;20.20;68.00;;;;;;5073852;28;20079;-64
2022/08/12 05:06:00;;;;;;;2.30;1.42;;;20.10;69.00;;;;;;5073859;28;20075;-63
2022/08/12 05:08:26;;;;;;;1.75;1.52;;;20.10;68.30;;;;;;5073833;28;20052;-64
2022/08/12 05:10:52;;;;;;;3.28;1.80;;;19.90;69.00;;;;;;5073653;28;20048;-64
2022/08/12 05:13:21;;;;;;;1.75;1.55;;;20.00;68.30;;;;;;5073680;28;20044;-64
2022/08/12 05:15:47;;;;;;;2.90;1.70;;;20.10;68.10;;;;;;5073824;28;20040;-65
2022/08/12 05:18:14;;;;;;;2.05;1.65;;;20.10;67.90;;;;;;5073607;28;20048;-62
2022/08/12 05:20:43;;;;;;;5.72;2.00;;;20.00;68.10;;;;;;5073644;28;20036;-62
2022/08/12 05:23:16;;;;;;;3.70;2.03;;;20.00;68.30;;;;;;5073640;28;20119;-64
2022/08/12 05:25:46;;;;;;;4.10;1.65;;;20.00;68.50;;;;;;5073529;28;20515;-63
2022/08/12 05:28:14;;;;;;;2.78;2.15;;;19.90;68.70;;;;;;5073695;28;20048;-63
2022/08/12 05:30:41;;;;;;;2.13;1.92;;;19.80;69.20;;;;;;5073301;28;20040;-64
2022/08/12 05:33:08;;;;;;;1.73;1.50;;;19.90;69.20;;;;;;5073341;28;20178;-64
2022/08/12 05:35:40;;;;;;;1.63;1.52;;;20.00;69.10;;;;;;5073231;28;20032;-64
2022/08/12 05:40:54;;;;;;;2.17;1.85;;;20.40;68.30;;;;;;5073066;28;20131;-63
2022/08/12 05:43:20;;;;;;;4.43;1.77;;;20.70;68.10;;;;;;5073131;28;20503;-63
2022/08/12 05:45:46;;;;;;;1.55;1.40;;;21.00;67.60;;;;;;5073134;28;20139;-64
2022/08/12 05:48:13;;;;;;;2.40;1.55;;;21.60;66.80;;;;;;5072108;28;20131;-63
2022/08/12 05:50:39;;;;;;;2.63;1.80;;;22.10;65.90;;;;;;5053143;28;20090;-62
2022/08/12 05:53:05;;;;;;;5.50;1.55;;;22.60;65.30;;;;;;5063425;28;20121;-63
2022/08/12 05:55:32;;;;;;;7.50;2.10;;;22.70;65.60;;;;;;5071842;28;20041;-64
2022/08/12 05:57:58;;;;;;;3.88;2.00;;;22.80;64.00;;;;;;5073242;28;20040;-63
2022/08/12 06:00:25;;;;;;;2.83;1.90;;;23.20;64.90;;;;;;5073440;28;20036;-63
2022/08/12 06:02:59;;;;;;;8.57;1.98;;;;;;;;;;5073168;28;20028;-63
2022/08/12 06:05:34;;;;;;;2.38;2.00;;;23.50;77.80;;;;;;5073051;28;20058;-66
2022/08/12 06:08:01;;;;;;;5.05;2.00;;;23.40;65.80;;;;;;5073115;28;20048;-66
2022/08/12 06:10:27;;;;;;;5.57;1.83;;;23.80;68.70;;;;;;5073129;28;20422;-66
2022/08/12 06:12:57;;;;;;;3.88;2.10;;;;;;;;;;5073068;28;20090;-64
2022/08/12 06:15:24;;;;;;;2.72;1.90;;;23.80;63.30;;;;;;5072928;28;20534;-64
2022/08/12 06:17:49;;;;;;;1.85;1.65;;;24.10;63.40;;;;;;5072927;28;20044;-63
2022/08/12 06:20:15;;;;;;;2.63;1.80;;;24.40;63.10;;;;;;5073017;28;20045;-64
2022/08/12 06:22:43;;;;;;;5.82;2.00;;;24.70;62.80;;;;;;5072788;28;20080;-64
2022/08/12 06:25:09;;;;;;;3.30;2.17;;;24.80;60.80;;;;;;5075756;28;20553;-64
2022/08/12 06:27:48;;;;;;;4.70;1.63;;;25.00;61.50;;;;;;5076920;28;20045;-64
2022/08/12 06:30:15;;;;;;;3.47;1.92;;;25.20;60.70;;;;;;5076694;28;20074;-64
2022/08/12 06:32:45;;;;;;;2.17;1.92;;;25.40;60.30;;;;;;5077009;28;20082;-64
2022/08/12 06:35:12;;;;;;;1.70;1.33;;;24.70;62.70;;;;;;5076735;28;20123;-64
2022/08/12 06:37:40;;;;;;;2.55;1.60;;;24.00;65.00;;;;;;5076861;28;20040;-64
2022/08/12 06:40:09;;;;;;;3.08;1.50;;;23.80;65.30;;;;;;5076810;28;20032;-64
2022/08/12 06:42:47;;;;;;;6.00;1.88;;;24.50;65.30;;;;;;5076799;28;20068;-65
2022/08/12 06:45:16;;;;;;;7.68;1.90;;;25.40;63.80;;;;;;5076571;28;20052;-65
2022/08/12 06:47:42;;;;;;;8.40;1.73;;;26.10;63.00;;;;;;5076591;28;20060;-64
2022/08/12 06:50:12;;;;;;;2.80;1.80;;;26.40;61.50;;;;;;5076594;28;20067;-65
2022/08/12 06:52:38;;;;;;;10.40;1.92;;;26.30;61.50;;;;;;5076589;28;20047;-63
2022/08/12 06:55:04;;;;;;;3.53;2.10;;;26.40;61.00;;;;;;5076491;28;20404;-63
2022/08/12 06:57:30;;;;;;;5.00;1.77;;;26.50;61.30;;;;;;5076441;28;20044;-63
2022/08/12 06:59:56;;;;;;;4.35;2.10;;;26.60;61.20;;;;;;5076406;28;20036;-63
2022/08/12 07:02:22;;;;;;;3.35;1.88;;;26.80;62.80;;;;;;5076312;28;20037;-63
2022/08/12 07:04:51;;;;;;;2.22;1.73;;;26.90;61.80;;;;;;5076294;28;20131;-64
2022/08/12 07:07:17;;;;;;;5.28;1.75;;;26.80;60.70;;;;;;5076607;28;20036;-67
2022/08/12 07:09:43;;;;;;;2.25;1.80;;;26.30;61.20;;;;;;5076047;28;20516;-68
2022/08/12 07:12:17;;;;;;;1.88;1.52;;;26.40;61.40;;;;;;5076141;28;20105;-71
2022/08/12 07:14:43;;;;;;;2.53;1.40;;;26.60;61.10;;;;;;5075800;28;20549;-65
2022/08/12 07:17:08;;;;;;;3.67;1.58;;;26.70;60.90;;;;;;5075956;28;20044;-64
2022/08/12 07:19:35;;;;;;;1.60;1.48;;;26.70;60.80;;;;;;5075897;28;20041;-68
2022/08/12 07:22:05;;;;;;;5.63;1.98;;;27.00;60.80;;;;;;5075819;28;20070;-65
2022/08/12 07:24:32;;;;;;;4.40;1.70;;;27.10;59.60;;;;;;5075865;28;20147;-65
2022/08/12 07:26:58;;;;;;;6.20;2.13;;;26.90;59.30;;;;;;5075923;28;20271;-67
2022/08/12 07:29:27;;;;;;;1.88;1.67;;;26.90;59.20;;;;;;5075810;28;20079;-65
2022/08/12 07:31:57;;;;;;;2.40;1.80;;;27.00;58.60;;;;;;5075746;28;20491;-65
2022/08/12 07:34:23;;;;;;;2.03;1.70;;;27.10;59.10;;;;;;5075629;28;20048;-64
2022/08/12 07:36:48;;;;;;;2.15;1.70;;;27.10;59.50;;;;;;5075539;28;20480;-69
2022/08/12 07:39:14;;;;;;;3.30;1.92;;;27.50;58.30;;;;;;5075689;28;20036;-66
2022/08/12 07:41:40;;;;;;;2.17;1.80;;;27.80;58.70;;;;;;5075551;28;20044;-65
2022/08/12 07:44:07;;;;;;;5.75;1.92;;;27.70;58.90;;;;;;5068723;28;20098;-67
2022/08/12 07:46:40;;;;;;;1.73;1.63;;;27.90;58.70;;;;;;5053553;28;20040;-64
2022/08/12 07:49:08;;;;;;;1.88;1.67;;;27.70;57.40;;;;;;5055252;28;20039;-64
2022/08/12 07:51:35;;;;;;;3.15;2.10;;;28.10;58.60;;;;;;5055339;28;20404;-63
2022/08/12 07:54:08;;;;;;;3.83;1.85;;;28.40;58.10;;;;;;5055510;28;20037;-62
2022/08/12 07:56:34;;;;;;;3.65;1.75;;;28.20;57.40;;;;;;5055489;28;20040;-63
2022/08/12 07:59:01;;;;;;;1.67;1.58;;;28.50;58.10;;;;;;5055243;28;20029;-63
2022/08/12 08:01:28;;;;;;;4.00;1.75;;;28.60;57.60;;;;;;5055061;28;20044;-64
2022/08/12 08:06:43;;;;;;;2.25;1.83;;;28.90;56.70;;;;;;5061921;28;20534;-65
2022/08/12 08:09:11;;;;;;;1.88;1.67;;;28.90;57.20;;;;;;5074833;28;20510;-67
2022/08/12 08:14:24;;;;;;;3.33;1.70;;;29.10;56.50;;;;;;5075153;28;20109;-67
2022/08/12 08:16:49;;;;;;;6.13;1.80;;;29.20;57.20;;;;;;5074961;28;20051;-65
2022/08/12 08:19:19;;;;;;;1.60;1.50;;;29.40;55.70;;;;;;5074339;28;20036;-66
2022/08/12 08:21:45;;;;;;;2.05;1.75;;;29.10;56.70;;;;;;5074641;28;20441;-67
2022/08/12 08:24:14;;;;;;;2.90;1.48;;;29.30;57.40;;;;;;5074739;28;20105;-65
2022/08/12 08:26:47;;;;;;;1.75;1.55;;;29.40;56.10;;;;;;5074767;28;20032;-64
2022/08/12 08:29:20;;;;;;;2.85;1.70;;;29.60;56.60;;;;;;5072668;28;20076;-64
2022/08/12 08:31:49;;;;;;;3.45;1.70;;;30.10;55.60;;;;;;5073965;28;20040;-64
2022/08/12 08:34:18;;;;;;;2.25;1.67;;;30.50;55.90;;;;;;5074851;28;20085;-63
2022/08/12 08:36:44;;;;;;;5.15;1.60;;;30.40;55.70;;;;;;5074549;28;20047;-64
2022/08/12 08:39:11;;;;;;;1.70;1.60;;;30.50;55.80;;;;;;5074647;28;20044;-63
2022/08/12 08:44:22;;;;;;;5.03;1.60;;;30.70;55.30;;;;;;5074241;28;20565;-64
2022/08/12 08:46:48;;;;;;;2.50;1.70;;;29.90;55.50;;;;;;5073769;28;20040;-64
2022/08/12 08:49:15;;;;;;;1.73;1.63;;;30.30;56.50;;;;;;5074386;28;20036;-64
2022/08/12 08:51:43;;;;;;;3.78;2.03;;;30.70;55.60;;;;;;5074405;28;20032;-65
2022/08/12 08:54:11;;;;;;;1.95;1.75;;;30.90;55.20;;;;;;5074191;28;20040;-64
2022/08/12 08:56:51;;;;;;;3.65;2.35;;;31.10;55.50;;;;;;5074067;28;20068;-64
2022/08/12 08:59:21;;;;;;;5.57;1.80;;;31.20;54.90;;;;;;5074154;28;20037;-65
2022/08/12 09:01:47;;;;;;;2.90;1.70;;;31.20;55.40;;;;;;5074178;28;20096;-65
2022/08/12 09:04:13;;;;;;;2.30;1.73;;;31.60;55.80;;;;;;5072821;28;20071;-65
2022/08/12 09:06:40;;;;;;;3.35;2.28;;;31.90;55.60;;;;;;5073207;28;20088;-65
2022/08/12 09:09:10;;;;;;;4.43;1.75;;;31.70;54.40;;;;;;5074103;28;20446;-65
2022/08/12 09:14:21;;;;;;;6.13;2.40;;;31.30;54.70;;;;;;5073708;28;20456;-65
2022/08/12 09:16:49;;;;;;;2.42;1.90;;;32.10;55.20;;;;;;5073536;28;20491;-65
2022/08/12 09:19:16;;;;;;;2.28;1.60;;;32.20;54.50;;;;;;5073834;28;20040;-65
2022/08/12 09:21:46;;;;;;;3.45;2.05;;;32.60;54.30;;;;;;5073619;28;20036;-66
2022/08/12 09:24:14;;;;;;;2.58;1.60;;;31.80;54.60;;;;;;5071753;28;20523;-65
2022/08/12 09:26:41;;;;;;;1.58;1.40;;;31.80;54.80;;;;;;5073845;28;20048;-65
2022/08/12 09:29:07;;;;;;;1.85;1.65;;;32.10;54.40;;;;;;5073394;28;20045;-65
2022/08/12 09:31:34;;;;;;;5.05;2.30;;;31.00;54.40;;;;;;5073405;28;20510;-65
2022/08/12 09:34:00;;;;;;;2.13;1.70;;;31.40;54.40;;;;;;5073425;28;20036;-63
2022/08/12 09:36:25;;;;;;;2.45;1.80;;;30.30;54.90;;;;;;5073340;28;20400;-64
2022/08/12 09:38:51;;;;;;;2.70;1.92;;;29.40;55.40;;;;;;5073703;28;20035;-64
2022/08/12 09:41:17;;;;;;;1.92;1.73;;;29.30;55.80;;;;;;5073238;28;20487;-63
2022/08/12 09:46:28;;;;;;;3.72;1.95;;;30.20;55.10;;;;;;5073218;28;20404;-63
2022/08/12 09:48:53;;;;;;;1.45;1.35;;;31.30;54.40;;;;;;5072958;28;20036;-62
2022/08/12 09:51:19;;;;;;;3.17;1.98;;;30.60;54.30;;;;;;5072878;28;20040;-62
2022/08/12 09:53:46;;;;;;;2.80;2.15;;;31.00;54.70;;;;;;5073489;28;20033;-64
2022/08/12 09:56:16;;;;;;;4.00;1.95;;;31.10;53.80;;;;;;5073275;28;20036;-63
2022/08/12 09:58:45;;;;;;;2.58;1.90;;;31.00;54.50;;;;;;5072382;28;20040;-64
2022/08/12 10:01:12;;;;;;;3.55;2.22;;;31.20;54.20;;;;;;5073279;28;20056;-64
2022/08/12 10:03:42;;;;;;;3.90;1.83;;;30.40;55.00;;;;;;5071988;28;20380;-64
2022/08/12 10:06:08;;;;;;;2.65;1.77;;;30.70;54.40;;;;;;5072725;28;20048;-64
2022/08/12 10:08:35;;;;;;;6.15;2.20;;;30.00;54.70;;;;;;5060363;28;20040;-66
2022/08/12 10:13:51;;;;;;;2.35;1.88;;;29.90;55.10;;;;;;5066148;28;20044;-65
2022/08/12 10:16:21;;;;;;;3.20;1.87;;;29.60;55.10;;;;;;5072321;28;20437;-65
2022/08/12 10:18:54;;;;;;;3.38;2.65;;;30.70;54.60;;;;;;5062491;28;20446;-64
2022/08/12 10:21:20;;;;;;;4.05;2.08;;;29.80;54.40;;;;;;5064201;28;20037;-65
2022/08/12 10:23:48;;;;;;;2.58;2.05;;;30.60;54.50;;;;;;5068731;28;20414;-66
2022/08/12 10:31:49;;;;;;;2.65;1.95;;;30.60;54.40;;;;;;5067906;28;20054;-63
2022/08/12 10:34:15;;;;;;;2.13;1.73;;;31.10;54.00;;;;;;5065060;28;20094;-65
2022/08/12 10:36:42;;;;;;;4.03;2.17;;;31.10;54.00;;;;;;5070079;28;20044;-64
2022/08/12 10:39:13;;;;;;;3.28;1.75;;;31.10;53.50;;;;;;5055252;28;20041;-64
2022/08/12 10:44:24;;;;;;;2.00;1.80;;;31.10;53.10;;;;;;5050513;28;20083;-64
2022/08/12 10:46:51;;;;;;;1.60;1.50;;;30.70;53.20;;;;;;5050253;28;20496;-64
2022/08/12 10:49:18;;;;;;;2.53;2.05;;;31.30;53.20;;;;;;5057692;28;20428;-63
2022/08/12 10:51:47;;;;;;;2.97;2.15;;;31.80;53.60;;;;;;5053063;28;20055;-63
2022/08/12 10:54:15;;;;;;;2.17;1.58;;;31.60;52.50;;;;;;5070839;28;20045;-64
2022/08/12 10:56:44;;;;;;;1.83;1.63;;;31.70;52.80;;;;;;5069008;28;20048;-63
2022/08/12 10:59:10;;;;;;;2.13;1.90;;;31.80;52.70;;;;;;5070851;28;20069;-64
2022/08/12 11:01:36;;;;;;;2.22;1.92;;;31.50;53.10;;;;;;5070912;28;20044;-63
2022/08/12 11:04:04;;;;;;;2.65;1.95;;;31.60;52.50;;;;;;5071632;28;20794;-64
2022/08/12 11:06:29;;;;;;;2.42;1.67;;;31.10;53.30;;;;;;5071984;28;20072;-63
2022/08/12 11:08:55;;;;;;;1.58;1.38;;;31.00;54.00;;;;;;5072592;28;20102;-64
2022/08/12 11:11:23;;;;;;;6.35;1.98;;;30.70;53.90;;;;;;5075731;28;20101;-63
2022/08/12 11:13:49;;;;;;;3.88;1.70;;;30.60;54.30;;;;;;5075733;28;20098;-64
2022/08/12 11:16:16;;;;;;;2.15;1.90;;;30.50;54.00;;;;;;5076199;28;20040;-63
2022/08/12 11:18:42;;;;;;;2.08;1.65;;;30.40;53.90;;;;;;5076160;28;20368;-63
2022/08/12 11:21:08;;;;;;;5.88;1.77;;;31.20;53.90;;;;;;5076152;28;20102;-64
2022/08/12 11:23:34;;;;;;;3.30;2.17;;;31.40;52.90;;;;;;5076125;28;20123;-64
2022/08/12 11:26:01;;;;;;;2.58;1.70;;;31.20;53.20;;;;;;5076057;28;20043;-64
2022/08/12 11:28:27;;;;;;;3.17;1.90;;;31.60;52.70;;;;;;5075986;28;20380;-64
2022/08/12 11:30:52;;;;;;;3.33;2.05;;;31.30;53.20;;;;;;5073424;28;20396;-64
2022/08/12 11:33:18;;;;;;;2.33;1.60;;;31.70;52.60;;;;;;5073201;28;20052;-64
2022/08/12 11:35:44;;;;;;;2.85;2.17;;;31.80;52.50;;;;;;5075020;28;20047;-64
2022/08/12 11:38:10;;;;;;;2.50;2.00;;;31.50;52.50;;;;;;5075739;28;20052;-64
2022/08/12 11:40:36;;;;;;;2.00;1.80;;;31.60;53.30;;;;;;5074249;28;20036;-64
2022/08/12 11:43:02;;;;;;;2.33;1.70;;;31.70;53.20;;;;;;5075137;28;20068;-64
2022/08/12 11:45:30;;;;;;;2.47;1.88;;;31.60;52.20;;;;;;5075536;28;20090;-64
2022/08/12 11:47:58;;;;;;;1.60;1.50;;;31.90;52.50;;;;;;5073702;28;20202;-64
2022/08/12 11:50:24;;;;;;;2.25;1.63;;;31.70;52.10;;;;;;5065946;28;20036;-64
2022/08/12 11:52:50;;;;;;;2.33;1.80;;;31.40;52.70;;;;;;5053165;28;20032;-64
2022/08/12 11:55:17;;;;;;;2.78;1.90;;;31.80;52.30;;;;;;5053545;28;20053;-64
2022/08/12 11:58:01;;;;;;;2.33;1.80;;;31.50;52.20;;;;;;5053656;28;20033;-64
2022/08/12 12:00:27;;;;;;;1.60;1.50;;;31.80;52.10;;;;;;5054911;28;20040;-64
2022/08/12 12:02:53;;;;;;;6.57;1.88;;;31.80;52.30;;;;;;5074885;28;20052;-64
2022/08/12 12:05:19;;;;;;;1.92;1.83;;;31.90;52.60;;;;;;5074629;28;20055;-64
2022/08/12 12:07:46;;;;;;;3.10;1.70;;;31.30;52.40;;;;;;5074413;28;20056;-64
2022/08/12 12:10:18;;;;;;;3.28;2.00;;;31.50;53.10;;;;;;5075177;28;20075;-64
2022/08/12 12:12:44;;;;;;;2.13;1.85;;;31.40;52.40;;;;;;5075089;28;20067;-64
2022/08/12 12:15:11;;;;;;;1.67;1.50;;;31.70;52.00;;;;;;5075329;28;20120;-65
2022/08/12 12:17:38;;;;;;;1.95;1.80;;;31.40;52.60;;;;;;5075095;28;20131;-64
2022/08/12 12:20:09;;;;;;;4.20;1.92;;;31.50;52.20;;;;;;5075198;28;20070;-64
2022/08/12 12:22:39;;;;;;;2.45;1.92;;;31.10;52.70;;;;;;5074138;28;20091;-63
2022/08/12 12:25:06;;;;;;;2.17;1.67;;;31.70;52.30;;;;;;5074585;28;20131;-64
2022/08/12 12:27:53;;;;;;;4.40;1.80;;;31.60;52.10;;;;;;5075022;28;20033;-64
2022/08/12 12:30:19;;;;;;;8.77;1.85;;;31.80;52.10;;;;;;5074865;28;20044;-64
2022/08/12 12:32:45;;;;;;;3.60;1.80;;;31.90;52.30;;;;;;5074858;28;20060;-63
2022/08/12 12:35:12;;;;;;;1.90;1.80;;;31.80;52.30;;;;;;5074754;28;20843;-63
2022/08/12 12:37:55;;;;;;;3.38;1.65;;;31.90;52.00;;;;;;5074633;28;20064;-64
2022/08/12 12:40:22;;;;;;;1.90;1.75;;;32.00;51.70;;;;;;5074659;28;20033;-64
2022/08/12 12:42:48;;;;;;;2.08;1.88;;;31.70;51.70;;;;;;5074584;28;20055;-64
2022/08/12 12:45:16;;;;;;;2.00;1.70;;;31.60;51.60;;;;;;5074521;28;20045;-65
2022/08/12 12:48:04;;;;;;;2.70;1.77;;;31.50;51.90;;;;;;5074558;28;20644;-63
2022/08/12 12:50:33;;;;;;;6.88;1.80;;;32.10;51.50;;;;;;5074519;28;20036;-66
2022/08/12 12:52:58;;;;;;;4.07;1.80;;;32.10;51.90;;;;;;5074481;28;20387;-63
2022/08/12 12:55:25;;;;;;;1.67;1.58;;;32.30;50.60;;;;;;5074337;28;20220;-64
2022/08/12 12:57:51;;;;;;;2.70;2.00;;;32.40;51.90;;;;;;5074380;28;20120;-64
2022/08/12 13:00:18;;;;;;;2.40;1.67;;;31.70;51.50;;;;;;5074211;28;20123;-64
2022/08/12 13:02:51;;;;;;;3.13;2.03;;;31.90;51.90;;;;;;5074457;28;20043;-64
2022/08/12 13:05:18;;;;;;;2.30;1.70;;;31.80;51.80;;;;;;5074141;28;20060;-63
2022/08/12 13:07:44;;;;;;;2.35;1.70;;;31.30;51.90;;;;;;5074216;28;20103;-64
2022/08/12 13:10:10;;;;;;;2.05;1.85;;;31.70;52.20;;;;;;5074133;28;20052;-63
2022/08/12 13:12:38;;;;;;;3.67;1.77;;;32.10;52.30;;;;;;5073997;28;20115;-64
2022/08/12 13:15:08;;;;;;;2.30;1.67;;;31.50;51.70;;;;;;5074175;28;20048;-65
2022/08/12 13:17:34;;;;;;;4.40;1.73;;;31.70;52.30;;;;;;5073943;28;20041;-64
2022/08/12 13:20:03;;;;;;;3.20;2.35;;;31.80;52.40;;;;;;5073921;28;20097;-64
2022/08/12 13:22:30;;;;;;;2.70;1.80;;;31.90;52.60;;;;;;5073962;28;20036;-64
2022/08/12 13:24:58;;;;;;;2.50;1.92;;;31.40;52.10;;;;;;5073792;28;20048;-64
2022/08/12 13:27:32;;;;;;;4.07;1.70;;;31.60;52.20;;;;;;5073816;28;20491;-65
2022/08/12 13:29:58;;;;;;;2.88;1.90;;;31.80;51.50;;;;;;5073730;28;20036;-65
2022/08/12 13:32:28;;;;;;;4.30;1.85;;;31.70;52.00;;;;;;5073572;28;20097;-64
2022/08/12 13:34:54;;;;;;;;;;;31.50;51.90;;;;;;5074095;28;20032;-66
2022/08/12 13:37:25;;;;;;;1.70;1.60;;;31.80;51.70;;;;;;5073683;28;19934;-64
2022/08/12 13:39:51;;;;;;;2.05;1.35;;;32.00;51.50;;;;;;5073580;28;20036;-63
2022/08/12 13:42:21;;;;;;;4.00;1.60;;;32.10;50.70;;;;;;5073266;28;20037;-65
2022/08/12 13:44:48;;;;;;;;;;;32.20;50.80;;;;;;5074043;28;20091;-64
2022/08/12 13:47:13;;;;;;;3.03;1.52;;;32.30;50.90;;;;;;5073767;28;19909;-64
2022/08/12 13:49:39;;;;;;;6.35;1.80;;;31.80;50.70;;;;;;5073412;28;20403;-64
2022/08/12 13:52:05;;;;;;;2.05;1.67;;;32.20;50.80;;;;;;5073239;28;20109;-64
2022/08/12 13:54:32;;;;;;;2.00;1.75;;;32.00;50.80;;;;;;5073417;28;20541;-63
2022/08/12 13:56:58;;;;;;;2.00;1.50;;;32.00;50.40;;;;;;5073163;28;20067;-64
2022/08/12 13:59:24;;;;;;;3.80;1.50;;;31.80;51.10;;;;;;5073365;28;20068;-63
2022/08/12 14:01:53;;;;;;;2.35;1.70;;;32.10;50.90;;;;;;5073310;28;20044;-64
2022/08/12 14:04:19;;;;;;;6.68;1.73;;;31.70;50.60;;;;;;5073111;28;20040;-64
2022/08/12 14:06:49;;;;;;;2.33;1.50;;;31.70;50.30;;;;;;5073135;28;20080;-64
2022/08/12 14:09:15;;;;;;;;;;;31.90;49.90;;;;;;5073528;28;20044;-64
2022/08/12 14:11:41;;;;;;;4.10;1.55;;;32.00;49.80;;;;;;5073012;28;20271;-64
2022/08/12 14:14:08;;;;;;;1.40;1.30;;;32.00;49.80;;;;;;5073184;28;20499;-64
2022/08/12 14:16:34;;;;;;;1.92;1.73;;;32.00;49.50;;;;;;5073129;28;20036;-63
2022/08/12 14:19:00;;;;;;;2.58;1.60;;;32.00;48.70;;;;;;5075639;28;20039;-65
2022/08/12 14:21:27;;;;;;;2.53;1.45;;;31.80;48.90;;;;;;5065289;28;20507;-65
2022/08/12 14:23:53;;;;;;;2.20;1.30;;;31.90;49.10;;;;;;5069801;28;20588;-65
2022/08/12 14:26:20;;;;;;;2.25;1.45;;;31.80;48.60;;;;;;5071388;28;20044;-64
2022/08/12 14:28:46;;;;;;;4.93;1.80;;;31.90;48.70;;;;;;5072755;28;20028;-65
2022/08/12 14:31:14;;;;;;;2.42;1.80;;;32.00;48.60;;;;;;5071269;28;20039;-65
2022/08/12 14:33:47;;;;;;;2.58;1.58;;;32.00;49.40;;;;;;5070166;28;20408;-65
2022/08/12 14:36:23;;;;;;;1.30;1.17;;;31.80;48.60;;;;;;5073064;28;20041;-63
2022/08/12 14:38:53;;;;;;;2.28;1.67;;;31.60;48.60;;;;;;5073053;28;20033;-66
2022/08/12 14:41:22;;;;;;;4.10;2.00;;;32.00;48.80;;;;;;5072836;28;20131;-63
2022/08/12 14:43:50;;;;;;;2.10;1.40;;;31.90;48.70;;;;;;5072824;28;20068;-64
2022/08/12 14:46:18;;;;;;;3.35;2.10;;;32.10;48.30;;;;;;5076848;28;20510;-64